createdAt,value
2019-04-10T00:00:33.324Z,40.67
2019-04-10T00:03:04.548Z,40.57
2019-04-10T00:05:36.187Z,43.37
2019-04-10T00:08:08.282Z,43.33
2019-04-10T00:10:40.065Z,42.70
2019-04-10T00:13:12.175Z,44.20
2019-04-10T00:15:43.090Z,43.83
2019-04-10T00:18:15.824Z,43.67
2019-04-10T00:20:46.989Z,42.60
2019-04-10T00:23:19.604Z,40.83
2019-04-10T00:25:50.868Z,41.33
2019-04-10T00:28:21.822Z,43.20
2019-04-10T00:30:53.591Z,42.47
2019-04-10T00:33:25.600Z,41.13
2019-04-10T00:35:57.007Z,43.50
2019-04-10T00:38:29.548Z,42.60
2019-04-10T00:41:00.692Z,40.10
2019-04-10T00:43:31.670Z,41.47
2019-04-10T00:46:02.643Z,40.13
2019-04-10T00:48:34.211Z,39.40
2019-04-10T00:51:05.156Z,34.70
2019-04-10T00:53:37.065Z,34.83
2019-04-10T00:56:08.429Z,34.87
2019-04-10T00:58:39.611Z,39.00
2019-04-10T01:01:11.818Z,38.03
2019-04-10T01:03:43.486Z,38.63
2019-04-10T01:06:15.837Z,39.70
2019-04-10T01:08:48.703Z,39.97
2019-04-10T01:11:19.856Z,43.07
2019-04-10T01:13:51.709Z,43.87
2019-04-10T01:16:23.103Z,43.67
2019-04-10T01:18:55.126Z,46.00
2019-04-10T01:21:26.431Z,42.60
2019-04-10T01:23:59.405Z,41.83
2019-04-10T01:26:31.536Z,42.47
2019-04-10T01:29:03.472Z,42.50
2019-04-10T01:31:35.113Z,42.27
2019-04-10T01:34:07.318Z,43.67
2019-04-10T01:36:39.467Z,44.10
2019-04-10T01:39:13.815Z,42.83
2019-04-10T01:41:44.912Z,43.87
2019-04-10T01:44:15.907Z,44.47
2019-04-10T01:46:46.802Z,44.60
2019-04-10T01:49:17.766Z,43.30
2019-04-10T01:51:49.718Z,40.40
2019-04-10T01:54:20.862Z,39.57
2019-04-10T01:56:52.144Z,38.67
2019-04-10T01:59:25.608Z,39.43
2019-04-10T02:02:00.892Z,39.57
2019-04-10T02:04:33.132Z,40.73
2019-04-10T02:07:04.134Z,39.93
2019-04-10T02:09:35.166Z,37.07
2019-04-10T02:12:06.247Z,38.57
2019-04-10T02:14:37.168Z,36.37
2019-04-10T02:17:08.511Z,37.80
2019-04-10T02:19:40.574Z,39.63
2019-04-10T02:22:14.133Z,38.40
2019-04-10T02:24:47.215Z,38.30
2019-04-10T02:27:18.339Z,40.40
2019-04-10T02:29:50.238Z,38.97
2019-04-10T02:32:21.335Z,39.03
2019-04-10T02:34:53.191Z,38.37
2019-04-10T02:37:25.111Z,37.50
2019-04-10T02:40:00.978Z,39.27
2019-04-10T02:42:30.289Z,39.03
2019-04-10T02:45:02.214Z,38.77
2019-04-10T02:47:34.701Z,38.90
2019-04-10T02:50:07.868Z,38.40
2019-04-10T02:52:40.592Z,38.90
2019-04-10T02:55:14.333Z,38.90
2019-04-10T02:57:45.936Z,40.70
2019-04-10T03:00:18.189Z,41.33
2019-04-10T03:02:52.025Z,39.57
2019-04-10T03:05:26.695Z,41.07
2019-04-10T03:07:58.055Z,39.30
2019-04-10T03:10:38.929Z,39.03
2019-04-10T03:13:05.025Z,40.80
2019-04-10T03:15:36.329Z,40.17
2019-04-10T03:18:08.306Z,37.83
2019-04-10T03:20:40.483Z,37.37
2019-04-10T03:23:11.617Z,37.73
2019-04-10T03:25:43.311Z,33.80
2019-04-10T03:28:14.578Z,36.03
2019-04-10T03:30:46.603Z,36.73
2019-04-10T03:33:26.116Z,41.87
2019-04-10T03:35:54.887Z,43.87
2019-04-10T03:38:25.887Z,41.73
2019-04-10T03:40:56.948Z,38.17
2019-04-10T03:43:27.933Z,38.90
2019-04-10T03:45:59.229Z,36.13
2019-04-10T03:48:31.308Z,36.90
2019-04-10T03:51:02.482Z,39.23
2019-04-10T03:53:34.078Z,38.33
2019-04-10T03:56:05.385Z,37.40
2019-04-10T03:58:36.293Z,36.23
2019-04-10T04:01:07.234Z,35.63
2019-04-10T04:03:38.970Z,37.33
2019-04-10T04:06:11.082Z,36.63
2019-04-10T04:08:42.102Z,37.37
2019-04-10T04:11:15.613Z,34.40
2019-04-10T04:13:46.602Z,32.87
2019-04-10T04:16:17.532Z,39.67
2019-04-10T04:18:49.179Z,53.23
2019-04-10T04:21:24.391Z,63.27
2019-04-10T04:23:55.304Z,85.40
2019-04-10T04:26:28.098Z,82.87
2019-04-10T04:29:00.012Z,73.93
2019-04-10T04:31:31.236Z,61.73
2019-04-10T04:34:02.186Z,47.73
2019-04-10T04:36:33.184Z,36.97
2019-04-10T04:39:18.091Z,32.50
2019-04-10T04:41:38.715Z,30.13
2019-04-10T04:44:10.253Z,31.67
2019-04-10T04:46:41.256Z,35.27
2019-04-10T04:49:15.739Z,32.07
2019-04-10T04:51:46.714Z,31.70
2019-04-10T04:54:17.612Z,34.53
2019-04-10T04:56:50.448Z,35.77
2019-04-10T04:59:21.469Z,33.60
2019-04-10T05:01:52.969Z,33.57
2019-04-10T05:04:25.078Z,33.97
2019-04-10T05:09:53.315Z,31.40
2019-04-10T05:12:25.339Z,33.17
2019-04-10T05:15:09.415Z,33.33
2019-04-10T05:17:49.232Z,33.30
2019-04-10T05:20:39.533Z,33.50
2019-04-10T05:23:00.254Z,31.40
2019-04-10T05:25:31.612Z,32.43
2019-04-10T05:28:03.588Z,31.90
2019-04-10T05:30:35.726Z,32.80
2019-04-10T05:33:06.671Z,33.70
2019-04-10T05:35:37.651Z,34.50
2019-04-10T05:38:08.585Z,33.77
2019-04-10T05:40:40.064Z,44.20
2019-04-10T05:43:11.487Z,34.73
2019-04-10T05:45:42.861Z,42.20
2019-04-10T05:48:13.821Z,57.93
2019-04-10T05:50:54.025Z,52.57
2019-04-10T05:53:18.452Z,41.37
2019-04-10T05:55:49.586Z,43.30
2019-04-10T05:58:21.637Z,43.73
2019-04-10T06:00:53.381Z,42.13
2019-04-10T06:03:24.752Z,41.43
2019-04-10T06:05:59.593Z,43.20
2019-04-10T06:08:29.386Z,41.20
2019-04-10T06:11:00.466Z,34.00
2019-04-10T06:13:32.542Z,26.53
2019-04-10T06:16:03.738Z,24.27
2019-04-10T06:18:35.477Z,23.77
2019-04-10T06:21:07.057Z,24.77
2019-04-10T06:23:39.298Z,23.23
2019-04-10T06:26:10.356Z,29.63
2019-04-10T06:28:42.200Z,38.87
2019-04-10T06:31:14.654Z,31.50
2019-04-10T06:33:46.411Z,19.97
2019-04-10T06:36:17.589Z,19.57
2019-04-10T06:38:48.529Z,25.37
2019-04-10T06:41:19.608Z,24.70
2019-04-10T06:43:50.548Z,20.23
2019-04-10T06:46:22.411Z,13.13
2019-04-10T06:48:53.366Z,7.90
2019-04-10T06:51:25.067Z,2.63
2019-04-10T06:54:03.616Z,3.20
2019-04-10T06:56:29.220Z,3.70
2019-04-10T06:59:00.397Z,3.93
2019-04-10T07:01:40.485Z,4.20
2019-04-10T07:04:07.670Z,9.90
2019-04-10T07:06:50.058Z,2.73
2019-04-10T07:09:13.753Z,2.73
2019-04-10T07:11:44.992Z,3.73
2019-04-10T07:14:16.739Z,3.30
2019-04-10T07:16:48.629Z,3.17
2019-04-10T07:19:19.890Z,2.87
2019-04-10T07:21:51.242Z,3.00
2019-04-10T07:24:22.908Z,3.10
2019-04-10T07:26:53.916Z,3.73
2019-04-10T07:29:27.690Z,2.43
2019-04-10T07:31:58.352Z,2.53
2019-04-10T07:34:29.926Z,3.40
2019-04-10T07:37:02.200Z,2.87
2019-04-10T07:39:34.098Z,3.77
2019-04-10T07:42:06.283Z,3.80
2019-04-10T07:44:37.311Z,3.20
2019-04-10T07:47:09.354Z,3.80
2019-04-10T07:49:40.336Z,2.47
2019-04-10T07:52:11.335Z,3.17
2019-04-10T07:54:44.592Z,3.93
2019-04-10T07:57:16.019Z,3.00
2019-04-10T07:59:47.217Z,4.40
2019-04-10T08:02:18.463Z,4.13
2019-04-10T08:04:49.436Z,3.47
2019-04-10T08:07:29.791Z,2.90
2019-04-10T08:09:54.070Z,2.20
2019-04-10T08:12:36.982Z,2.40
2019-04-10T08:14:57.696Z,2.90
2019-04-10T08:17:30.468Z,3.50
2019-04-10T08:20:01.663Z,3.40
2019-04-10T08:22:33.071Z,3.40
2019-04-10T08:25:06.416Z,2.80
2019-04-10T08:27:38.470Z,3.67
2019-04-10T08:30:11.086Z,3.20
2019-04-10T08:32:53.296Z,3.23
2019-04-10T08:35:17.419Z,2.73
2019-04-10T08:37:49.396Z,2.50
2019-04-10T08:40:21.117Z,2.73
2019-04-10T08:42:52.462Z,2.90
2019-04-10T08:45:33.198Z,2.53
2019-04-10T08:47:59.484Z,2.87
2019-04-10T08:50:30.695Z,3.03
2019-04-10T08:53:18.024Z,3.37
2019-04-10T08:55:50.424Z,3.00
2019-04-10T08:58:21.476Z,3.83
2019-04-10T09:00:53.960Z,3.50
2019-04-10T09:03:26.736Z,2.90
2019-04-10T09:05:58.767Z,3.03
2019-04-10T09:08:30.181Z,3.50
2019-04-10T09:11:05.604Z,2.60
2019-04-10T09:13:36.869Z,3.03
2019-04-10T09:16:07.899Z,3.27
2019-04-10T09:18:39.742Z,2.97
2019-04-10T09:21:11.163Z,3.27
2019-04-10T09:23:50.268Z,2.30
2019-04-10T09:26:16.382Z,3.00
2019-04-10T09:28:47.405Z,3.47
2019-04-10T09:31:18.421Z,2.53
2019-04-10T09:33:49.589Z,3.47
2019-04-10T09:36:21.491Z,3.20
2019-04-10T09:38:52.849Z,2.87
2019-04-10T09:41:23.894Z,3.43
2019-04-10T09:43:56.633Z,3.53
2019-04-10T09:46:28.762Z,2.63
2019-04-10T09:49:00.462Z,1.80
2019-04-10T09:51:31.901Z,2.70
2019-04-10T09:54:03.602Z,2.70
2019-04-10T09:56:34.863Z,3.10
2019-04-10T09:59:05.822Z,3.03
2019-04-10T10:01:37.902Z,2.80
2019-04-10T10:04:13.222Z,2.87
2019-04-10T10:06:45.350Z,2.60
2019-04-10T10:09:17.625Z,3.10
2019-04-10T10:11:49.160Z,2.67
2019-04-10T10:14:20.939Z,3.00
2019-04-10T10:16:52.596Z,2.57
2019-04-10T10:19:25.938Z,2.47
2019-04-10T10:21:57.142Z,2.50
2019-04-10T10:24:28.879Z,2.77
2019-04-10T10:26:59.912Z,2.60
2019-04-10T10:29:33.525Z,2.60
2019-04-10T10:32:04.664Z,2.77
2019-04-10T10:34:36.776Z,2.23
2019-04-10T10:37:08.450Z,2.30
2019-04-10T10:39:39.391Z,1.77
2019-04-10T10:42:11.582Z,2.20
2019-04-10T10:44:42.714Z,2.57
2019-04-10T10:47:13.767Z,2.20
2019-04-10T10:49:45.527Z,2.50
2019-04-10T10:52:17.543Z,2.27
2019-04-10T10:54:49.389Z,3.00
2019-04-10T10:57:20.454Z,2.63
2019-04-10T10:59:53.594Z,2.53
2019-04-10T11:02:25.557Z,2.43
2019-04-10T11:05:02.572Z,1.87
2019-04-10T11:07:32.995Z,1.80
2019-04-10T11:10:04.856Z,2.30
2019-04-10T11:12:42.342Z,1.60
2019-04-10T11:15:14.210Z,2.40
2019-04-10T11:17:46.099Z,2.57
2019-04-10T11:20:19.826Z,2.13
2019-04-10T11:22:50.929Z,2.83
2019-04-10T11:25:22.197Z,2.60
2019-04-10T11:27:53.953Z,2.30
2019-04-10T11:30:25.023Z,2.33
2019-04-10T11:32:55.993Z,2.47
2019-04-10T11:35:29.009Z,2.23
2019-04-10T11:38:01.386Z,2.30
2019-04-10T11:40:34.304Z,2.40
2019-04-10T11:43:05.958Z,3.63
2019-04-10T11:45:41.841Z,2.67
2019-04-10T11:48:10.300Z,4.47
2019-04-10T11:50:43.852Z,1.63
2019-04-10T11:53:17.778Z,2.70
2019-04-10T11:55:51.122Z,2.63
2019-04-10T11:58:21.737Z,2.47
2019-04-10T12:00:56.399Z,2.50
2019-04-10T12:03:27.145Z,3.43
2019-04-10T12:05:59.844Z,3.50
2019-04-10T12:09:00.370Z,2.43
2019-04-10T12:11:08.694Z,2.80
2019-04-10T12:13:38.717Z,2.93
2019-04-10T12:16:09.685Z,2.90
2019-04-10T12:18:40.641Z,2.67
2019-04-10T12:21:13.522Z,1.70
2019-04-10T12:23:45.238Z,2.90
2019-04-10T12:26:16.221Z,2.60
2019-04-10T12:28:47.267Z,2.20
2019-04-10T12:31:18.256Z,2.47
2019-04-10T12:33:50.736Z,2.13
2019-04-10T12:36:22.828Z,2.57
2019-04-10T12:38:54.142Z,2.43
2019-04-10T12:41:25.605Z,3.03
2019-04-10T12:43:56.969Z,3.03
2019-04-10T12:46:28.917Z,2.60
2019-04-10T12:49:01.497Z,3.90
2019-04-10T12:51:32.726Z,3.30
2019-04-10T12:54:04.633Z,3.60
2019-04-10T12:56:35.927Z,2.50
2019-04-10T12:59:07.017Z,2.80
2019-04-10T13:01:38.575Z,3.03
2019-04-10T13:04:09.670Z,2.97
2019-04-10T13:06:42.258Z,2.70
2019-04-10T13:09:14.416Z,2.50
2019-04-10T13:11:48.961Z,2.80
2019-04-10T13:14:20.159Z,2.43
2019-04-10T13:16:52.113Z,3.67
2019-04-10T13:19:23.158Z,4.40
2019-04-10T13:21:55.814Z,3.10
2019-04-10T13:24:27.928Z,3.73
2019-04-10T13:26:59.038Z,3.17
2019-04-10T13:29:30.105Z,32.67
2019-04-10T13:32:01.349Z,3.63
2019-04-10T13:34:33.327Z,5.23
2019-04-10T13:37:06.209Z,5.13
2019-04-10T13:39:37.416Z,7.47
2019-04-10T13:42:09.292Z,4.70
2019-04-10T13:44:42.534Z,4.63
2019-04-10T13:47:17.501Z,4.77
2019-04-10T13:49:51.121Z,8.60
2019-04-10T13:52:24.367Z,3.07
2019-04-10T13:54:55.330Z,3.20
2019-04-10T13:57:26.449Z,4.50
2019-04-10T13:59:57.542Z,10.00
2019-04-10T14:02:31.236Z,10.03
2019-04-10T14:05:03.309Z,3.37
2019-04-10T14:07:36.094Z,24.90
2019-04-10T14:10:08.237Z,37.63
2019-04-10T14:12:39.159Z,6.23
2019-04-10T14:15:10.049Z,4.10
2019-04-10T14:17:41.727Z,7.87
2019-04-10T14:20:15.212Z,2.10
2019-04-10T14:22:48.182Z,8.23
2019-04-10T14:25:20.712Z,2.70
2019-04-10T14:27:52.309Z,7.50
2019-04-10T14:30:40.255Z,7.77
2019-04-10T14:33:11.360Z,3.97
2019-04-10T14:35:43.169Z,2.70
2019-04-10T14:38:15.633Z,3.10
2019-04-10T14:40:51.400Z,19.87
2019-04-10T14:43:24.797Z,6.17
2019-04-10T14:45:56.003Z,3.80
2019-04-10T14:48:27.927Z,4.40
2019-04-10T14:50:59.799Z,3.07
2019-04-10T14:53:31.798Z,66.97
2019-04-10T14:56:02.708Z,38.20
2019-04-10T14:58:35.392Z,4.17
2019-04-10T15:01:08.430Z,6.73
2019-04-10T15:03:40.303Z,5.97
2019-04-10T15:06:11.617Z,4.43
2019-04-10T15:08:43.831Z,4.60
2019-04-10T15:11:16.770Z,5.27
2019-04-10T15:13:48.733Z,5.37
2019-04-10T15:16:20.914Z,5.27
2019-04-10T15:18:52.100Z,5.23
2019-04-10T15:21:33.007Z,4.00
2019-04-10T15:24:23.761Z,6.77
2019-04-10T15:27:09.321Z,7.10
2019-04-10T15:29:47.108Z,4.97
2019-04-10T15:32:22.378Z,25.97
2019-04-10T15:35:18.111Z,8.10
2019-04-10T15:37:50.037Z,9.30
2019-04-10T15:40:25.551Z,6.13
2019-04-10T15:42:56.584Z,5.30
2019-04-10T15:45:28.364Z,7.67
2019-04-10T15:48:15.290Z,6.43
2019-04-10T15:51:00.100Z,7.80
2019-04-10T15:59:40.674Z,6.53
2019-04-10T16:02:15.389Z,38.63
2019-04-10T16:04:48.959Z,15.37
2019-04-10T16:07:20.436Z,8.67
2019-04-10T16:09:54.608Z,21.17
2019-04-10T16:12:27.588Z,10.80
2019-04-10T16:15:02.874Z,20.37
2019-04-10T16:18:10.107Z,23.53
2019-04-10T16:21:23.382Z,17.60
2019-04-10T16:24:08.779Z,17.50
2019-04-10T16:26:43.440Z,8.57
2019-04-10T16:29:32.360Z,11.33
2019-04-10T16:32:04.209Z,10.00
2019-04-10T16:34:56.870Z,9.67
2019-04-10T16:37:33.656Z,56.73
2019-04-10T16:40:09.832Z,20.87
2019-04-10T16:42:45.050Z,13.03
2019-04-10T16:45:16.297Z,7.83
2019-04-10T16:48:08.787Z,10.47
2019-04-10T16:50:49.777Z,6.13
2019-04-10T16:53:25.745Z,6.33
2019-04-10T16:55:56.955Z,4.87
2019-04-10T16:58:27.888Z,3.20
2019-04-10T17:01:00.106Z,5.53
2019-04-10T17:03:31.069Z,3.60
2019-04-10T17:06:02.094Z,4.13
2019-04-10T17:08:43.958Z,4.27
2019-04-10T17:11:23.011Z,6.40
2019-04-10T17:17:14.500Z,5.33
2019-04-10T17:19:51.894Z,5.90
2019-04-10T17:22:30.858Z,5.70
2019-04-10T17:24:51.122Z,9.50
2019-04-10T17:27:24.129Z,10.00
2019-04-10T17:29:56.551Z,12.00
2019-04-10T17:32:29.250Z,12.63
2019-04-10T17:35:00.459Z,11.80
2019-04-10T17:37:31.874Z,11.87
2019-04-10T17:40:25.013Z,17.10
2019-04-10T17:42:50.538Z,14.70
2019-04-10T17:45:23.007Z,15.23
2019-04-10T17:47:56.519Z,13.20
2019-04-10T17:50:29.951Z,21.37
2019-04-10T17:53:02.822Z,13.17
2019-04-10T17:55:35.633Z,10.63
2019-04-10T17:58:07.414Z,9.43
2019-04-10T18:00:40.080Z,8.00
2019-04-10T18:03:14.052Z,10.17
2019-04-10T18:05:46.749Z,10.70
2019-04-10T18:08:18.834Z,9.67
2019-04-10T18:10:57.246Z,10.30
2019-04-10T18:13:28.906Z,14.30
2019-04-10T18:16:00.235Z,16.73
2019-04-10T18:18:34.247Z,17.13
2019-04-10T18:21:06.664Z,18.60
2019-04-10T18:23:39.744Z,21.07
2019-04-10T18:26:23.651Z,12.23
2019-04-10T18:28:54.741Z,16.97
2019-04-10T18:31:27.761Z,22.10
2019-04-10T18:34:14.433Z,12.63
2019-04-10T18:36:48.648Z,14.37
2019-04-10T18:39:21.893Z,14.13
2019-04-10T18:41:53.892Z,11.80
2019-04-10T18:44:25.143Z,12.53
2019-04-10T18:46:56.459Z,16.93
2019-04-10T18:49:29.477Z,17.50
2019-04-10T18:52:00.579Z,21.40
2019-04-10T18:54:31.929Z,32.40
2019-04-10T18:57:03.334Z,24.60
2019-04-10T18:59:36.491Z,20.07
2019-04-10T19:02:25.531Z,24.50
2019-04-10T19:05:00.212Z,15.87
2019-04-10T19:07:32.327Z,11.47
2019-04-10T19:10:04.380Z,16.87
2019-04-10T19:12:37.238Z,10.93
2019-04-10T19:15:09.070Z,11.10
2019-04-10T19:32:04.971Z,14.33
2019-04-10T19:38:46.708Z,14.97
2019-04-10T19:41:25.248Z,12.63
2019-04-10T19:43:50.544Z,12.07
2019-04-10T19:46:21.780Z,16.03
2019-04-10T19:48:59.574Z,13.07
2019-04-10T19:51:38.693Z,9.83
2019-04-10T19:54:13.783Z,12.00
2019-04-10T19:56:46.144Z,13.77
2019-04-10T19:59:18.802Z,15.97
2019-04-10T20:01:52.847Z,14.97
2019-04-10T20:04:24.557Z,12.40
2019-04-10T20:06:58.589Z,11.77
2019-04-10T20:09:30.535Z,11.47
2019-04-10T20:12:04.336Z,14.03
2019-04-10T20:14:37.207Z,14.73
2019-04-10T23:41:23.437Z,8.77
2019-04-10T23:44:38.125Z,8.47
2019-04-10T23:47:09.627Z,9.27
2019-04-10T23:49:41.632Z,10.53
2019-04-10T23:52:14.427Z,8.20
2019-04-10T23:54:45.816Z,7.77
2019-04-10T23:57:17.055Z,7.07
2019-04-10T23:59:47.964Z,7.47
